sensor_id;sensor_type;location;lat;lon;timestamp;P1;durP1;ratioP1;P2;durP2;ratioP2
61642;SDS011;47551;52.506;4.678;2022-09-09T00:00:20;7.13;;;4.60;;
61642;SDS011;47551;52.506;4.678;2022-09-09T00:00:41;8.93;;;4.68;;
61642;SDS011;47551;52.506;4.678;2022-09-09T00:02:27;6.88;;;4.53;;
61642;SDS011;47551;52.506;4.678;2022-09-09T00:02:50;7.43;;;4.80;;
61642;SDS011;47551;52.506;4.678;2022-09-09T00:03:16;6.95;;;4.97;;
61642;SDS011;47551;52.506;4.678;2022-09-09T00:04:41;6.93;;;4.87;;
61642;SDS011;47551;52.506;4.678;2022-09-09T00:05:12;7.00;;;5.05;;
61642;SDS011;47551;52.506;4.678;2022-09-09T00:06:13;6.85;;;4.85;;
61642;SDS011;47551;52.506;4.678;2022-09-09T00:07:43;7.60;;;5.20;;
61642;SDS011;47551;52.506;4.678;2022-09-09T00:08:07;8.00;;;5.20;;
61642;SDS011;47551;52.506;4.678;2022-09-09T00:08:39;8.35;;;5.22;;
61642;SDS011;47551;52.506;4.678;2022-09-09T00:09:10;7.82;;;5.40;;
61642;SDS011;47551;52.506;4.678;2022-09-09T00:09:39;8.50;;;5.20;;
61642;SDS011;47551;52.506;4.678;2022-09-09T00:10:37;7.80;;;5.10;;
61642;SDS011;47551;52.506;4.678;2022-09-09T00:11:01;7.20;;;5.30;;
61642;SDS011;47551;52.506;4.678;2022-09-09T00:11:26;7.13;;;5.30;;
61642;SDS011;47551;52.506;4.678;2022-09-09T00:13:30;6.22;;;5.05;;
61642;SDS011;47551;52.506;4.678;2022-09-09T00:13:53;7.63;;;5.40;;
61642;SDS011;47551;52.506;4.678;2022-09-09T00:14:18;7.40;;;5.57;;
61642;SDS011;47551;52.506;4.678;2022-09-09T00:15:18;6.93;;;4.93;;
61642;SDS011;47551;52.506;4.678;2022-09-09T00:15:41;8.50;;;5.30;;
61642;SDS011;47551;52.506;4.678;2022-09-09T00:16:04;6.93;;;5.07;;
61642;SDS011;47551;52.506;4.678;2022-09-09T00:16:28;7.15;;;5.05;;
61642;SDS011;47551;52.506;4.678;2022-09-09T00:16:54;8.65;;;5.30;;
61642;SDS011;47551;52.506;4.678;2022-09-09T00:17:22;8.85;;;5.18;;
61642;SDS011;47551;52.506;4.678;2022-09-09T00:17:47;8.55;;;5.43;;
61642;SDS011;47551;52.506;4.678;2022-09-09T00:18:16;8.57;;;5.32;;
61642;SDS011;47551;52.506;4.678;2022-09-09T00:19:21;8.57;;;5.13;;
61642;SDS011;47551;52.506;4.678;2022-09-09T00:20:34;7.25;;;4.95;;
61642;SDS011;47551;52.506;4.678;2022-09-09T00:20:58;7.63;;;5.50;;
61642;SDS011;47551;52.506;4.678;2022-09-09T00:21:20;7.45;;;5.30;;
61642;SDS011;47551;52.506;4.678;2022-09-09T00:22:25;7.80;;;5.20;;
61642;SDS011;47551;52.506;4.678;2022-09-09T00:22:29;7.38;;;5.20;;
61642;SDS011;47551;52.506;4.678;2022-09-09T00:22:54;6.88;;;5.53;;
61642;SDS011;47551;52.506;4.678;2022-09-09T00:23:29;8.50;;;5.80;;
61642;SDS011;47551;52.506;4.678;2022-09-09T00:23:53;7.97;;;6.05;;
61642;SDS011;47551;52.506;4.678;2022-09-09T00:24:38;8.10;;;5.68;;
61642;SDS011;47551;52.506;4.678;2022-09-09T00:24:55;10.25;;;5.80;;
61642;SDS011;47551;52.506;4.678;2022-09-09T00:25:26;8.77;;;5.78;;
61642;SDS011;47551;52.506;4.678;2022-09-09T00:26:51;9.60;;;6.70;;
61642;SDS011;47551;52.506;4.678;2022-09-09T00:27:46;8.77;;;6.30;;
61642;SDS011;47551;52.506;4.678;2022-09-09T00:28:19;8.25;;;6.00;;
61642;SDS011;47551;52.506;4.678;2022-09-09T00:29:02;8.70;;;5.93;;
61642;SDS011;47551;52.506;4.678;2022-09-09T00:29:28;9.05;;;6.30;;
61642;SDS011;47551;52.506;4.678;2022-09-09T00:30:35;7.70;;;5.95;;
61642;SDS011;47551;52.506;4.678;2022-09-09T00:30:39;8.73;;;6.13;;
61642;SDS011;47551;52.506;4.678;2022-09-09T00:31:22;8.98;;;6.05;;
61642;SDS011;47551;52.506;4.678;2022-09-09T00:31:43;9.77;;;6.53;;
61642;SDS011;47551;52.506;4.678;2022-09-09T00:32:18;8.47;;;6.33;;
61642;SDS011;47551;52.506;4.678;2022-09-09T00:32:38;8.73;;;6.22;;
61642;SDS011;47551;52.506;4.678;2022-09-09T00:33:00;8.07;;;6.07;;
61642;SDS011;47551;52.506;4.678;2022-09-09T00:33:22;9.52;;;6.18;;
61642;SDS011;47551;52.506;4.678;2022-09-09T00:33:43;9.18;;;6.10;;
61642;SDS011;47551;52.506;4.678;2022-09-09T00:34:11;9.20;;;6.13;;
61642;SDS011;47551;52.506;4.678;2022-09-09T00:34:32;8.23;;;6.22;;
61642;SDS011;47551;52.506;4.678;2022-09-09T00:34:57;8.85;;;6.35;;
61642;SDS011;47551;52.506;4.678;2022-09-09T00:35:23;8.55;;;5.72;;
61642;SDS011;47551;52.506;4.678;2022-09-09T00:35:47;9.30;;;6.05;;
61642;SDS011;47551;52.506;4.678;2022-09-09T00:36:14;8.43;;;6.35;;
61642;SDS011;47551;52.506;4.678;2022-09-09T00:36:36;7.97;;;5.93;;
61642;SDS011;47551;52.506;4.678;2022-09-09T00:36:57;8.68;;;6.32;;
61642;SDS011;47551;52.506;4.678;2022-09-09T00:37:18;9.23;;;6.10;;
61642;SDS011;47551;52.506;4.678;2022-09-09T00:37:42;7.63;;;6.05;;
61642;SDS011;47551;52.506;4.678;2022-09-09T00:38:06;8.60;;;5.95;;
61642;SDS011;47551;52.506;4.678;2022-09-09T00:38:33;9.15;;;6.07;;
61642;SDS011;47551;52.506;4.678;2022-09-09T00:38:59;7.88;;;6.00;;
61642;SDS011;47551;52.506;4.678;2022-09-09T00:39:34;8.30;;;6.25;;
61642;SDS011;47551;52.506;4.678;2022-09-09T00:39:58;10.40;;;6.00;;
61642;SDS011;47551;52.506;4.678;2022-09-09T00:40:33;8.40;;;6.00;;
61642;SDS011;47551;52.506;4.678;2022-09-09T00:41:11;8.38;;;6.18;;
61642;SDS011;47551;52.506;4.678;2022-09-09T00:41:38;8.75;;;6.32;;
61642;SDS011;47551;52.506;4.678;2022-09-09T00:42:17;9.25;;;6.32;;
61642;SDS011;47551;52.506;4.678;2022-09-09T00:42:42;10.07;;;6.68;;
61642;SDS011;47551;52.506;4.678;2022-09-09T00:43:26;8.43;;;6.23;;
61642;SDS011;47551;52.506;4.678;2022-09-09T00:43:57;8.60;;;6.38;;
61642;SDS011;47551;52.506;4.678;2022-09-09T00:44:51;8.70;;;6.32;;
61642;SDS011;47551;52.506;4.678;2022-09-09T00:46:10;8.57;;;6.25;;
61642;SDS011;47551;52.506;4.678;2022-09-09T00:47:46;8.50;;;6.43;;
61642;SDS011;47551;52.506;4.678;2022-09-09T00:48:12;9.27;;;6.57;;
61642;SDS011;47551;52.506;4.678;2022-09-09T00:49:47;10.05;;;6.10;;
61642;SDS011;47551;52.506;4.678;2022-09-09T00:50:44;8.93;;;6.45;;
61642;SDS011;47551;52.506;4.678;2022-09-09T00:51:08;9.70;;;6.63;;
61642;SDS011;47551;52.506;4.678;2022-09-09T00:51:35;9.75;;;6.45;;
61642;SDS011;47551;52.506;4.678;2022-09-09T00:52:36;8.27;;;6.18;;
61642;SDS011;47551;52.506;4.678;2022-09-09T00:53:28;9.45;;;6.50;;
61642;SDS011;47551;52.506;4.678;2022-09-09T00:54:45;9.30;;;7.00;;
61642;SDS011;47551;52.506;4.678;2022-09-09T00:56:13;9.50;;;7.25;;
61642;SDS011;47551;52.506;4.678;2022-09-09T00:56:38;9.32;;;7.20;;
61642;SDS011;47551;52.506;4.678;2022-09-09T00:57:29;10.48;;;7.40;;
61642;SDS011;47551;52.506;4.678;2022-09-09T00:57:51;9.63;;;7.15;;
61642;SDS011;47551;52.506;4.678;2022-09-09T00:58:12;10.13;;;7.20;;
61642;SDS011;47551;52.506;4.678;2022-09-09T00:58:32;9.43;;;7.65;;
61642;SDS011;47551;52.506;4.678;2022-09-09T00:58:57;10.97;;;7.73;;
61642;SDS011;47551;52.506;4.678;2022-09-09T00:59:37;9.52;;;7.25;;
61642;SDS011;47551;52.506;4.678;2022-09-09T01:01:03;9.53;;;6.70;;
61642;SDS011;47551;52.506;4.678;2022-09-09T01:01:26;10.95;;;7.47;;
61642;SDS011;47551;52.506;4.678;2022-09-09T01:01:49;9.05;;;7.15;;
61642;SDS011;47551;52.506;4.678;2022-09-09T01:02:13;9.45;;;7.18;;
61642;SDS011;47551;52.506;4.678;2022-09-09T01:02:39;10.13;;;7.50;;
61642;SDS011;47551;52.506;4.678;2022-09-09T01:03:53;8.77;;;7.05;;
61642;SDS011;47551;52.506;4.678;2022-09-09T01:04:16;9.88;;;7.22;;
61642;SDS011;47551;52.506;4.678;2022-09-09T01:04:40;9.32;;;7.05;;
61642;SDS011;47551;52.506;4.678;2022-09-09T01:05:10;8.77;;;7.03;;
61642;SDS011;47551;52.506;4.678;2022-09-09T01:05:54;9.63;;;7.10;;
61642;SDS011;47551;52.506;4.678;2022-09-09T01:06:36;10.13;;;7.78;;
61642;SDS011;47551;52.506;4.678;2022-09-09T01:07:04;9.95;;;8.00;;
61642;SDS011;47551;52.506;4.678;2022-09-09T01:07:26;10.85;;;7.63;;
61642;SDS011;47551;52.506;4.678;2022-09-09T01:07:47;9.87;;;7.67;;
61642;SDS011;47551;52.506;4.678;2022-09-09T01:08:27;10.73;;;8.07;;
61642;SDS011;47551;52.506;4.678;2022-09-09T01:09:55;9.77;;;7.70;;
61642;SDS011;47551;52.506;4.678;2022-09-09T01:10:21;9.82;;;7.60;;
61642;SDS011;47551;52.506;4.678;2022-09-09T01:10:51;9.43;;;7.80;;
61642;SDS011;47551;52.506;4.678;2022-09-09T01:11:55;11.27;;;8.50;;
61642;SDS011;47551;52.506;4.678;2022-09-09T01:12:46;10.52;;;8.00;;
61642;SDS011;47551;52.506;4.678;2022-09-09T01:13:11;11.33;;;8.07;;
61642;SDS011;47551;52.506;4.678;2022-09-09T01:13:39;10.57;;;8.32;;
61642;SDS011;47551;52.506;4.678;2022-09-09T01:14:19;11.98;;;8.27;;
61642;SDS011;47551;52.506;4.678;2022-09-09T01:14:58;10.05;;;7.80;;
61642;SDS011;47551;52.506;4.678;2022-09-09T01:15:22;9.73;;;7.90;;
61642;SDS011;47551;52.506;4.678;2022-09-09T01:15:44;10.43;;;8.15;;
61642;SDS011;47551;52.506;4.678;2022-09-09T01:16:07;11.88;;;8.52;;
61642;SDS011;47551;52.506;4.678;2022-09-09T01:16:28;11.57;;;8.63;;
61642;SDS011;47551;52.506;4.678;2022-09-09T01:16:50;11.57;;;8.07;;
61642;SDS011;47551;52.506;4.678;2022-09-09T01:17:38;10.48;;;8.18;;
61642;SDS011;47551;52.506;4.678;2022-09-09T01:18:05;10.57;;;8.48;;
61642;SDS011;47551;52.506;4.678;2022-09-09T01:18:27;11.38;;;8.50;;
61642;SDS011;47551;52.506;4.678;2022-09-09T01:18:49;11.20;;;8.68;;
61642;SDS011;47551;52.506;4.678;2022-09-09T01:19:15;10.60;;;8.63;;
61642;SDS011;47551;52.506;4.678;2022-09-09T01:20:14;10.52;;;8.68;;
61642;SDS011;47551;52.506;4.678;2022-09-09T01:20:39;12.82;;;8.50;;
61642;SDS011;47551;52.506;4.678;2022-09-09T01:22:29;11.80;;;8.80;;
61642;SDS011;47551;52.506;4.678;2022-09-09T01:24:50;10.98;;;8.60;;
61642;SDS011;47551;52.506;4.678;2022-09-09T01:26:43;10.23;;;8.63;;
61642;SDS011;47551;52.506;4.678;2022-09-09T01:27:03;11.13;;;9.00;;
61642;SDS011;47551;52.506;4.678;2022-09-09T01:27:25;11.57;;;8.60;;
61642;SDS011;47551;52.506;4.678;2022-09-09T01:27:46;11.03;;;8.60;;
61642;SDS011;47551;52.506;4.678;2022-09-09T01:28:08;12.75;;;8.98;;
61642;SDS011;47551;52.506;4.678;2022-09-09T01:28:30;11.95;;;8.93;;
61642;SDS011;47551;52.506;4.678;2022-09-09T01:28:51;11.85;;;8.80;;
61642;SDS011;47551;52.506;4.678;2022-09-09T01:29:15;11.05;;;8.77;;
61642;SDS011;47551;52.506;4.678;2022-09-09T01:29:36;11.20;;;9.27;;
61642;SDS011;47551;52.506;4.678;2022-09-09T01:29:56;10.73;;;8.97;;
61642;SDS011;47551;52.506;4.678;2022-09-09T01:30:17;11.52;;;9.18;;
61642;SDS011;47551;52.506;4.678;2022-09-09T01:30:38;11.93;;;9.35;;
61642;SDS011;47551;52.506;4.678;2022-09-09T01:30:59;11.88;;;9.32;;
61642;SDS011;47551;52.506;4.678;2022-09-09T01:31:21;11.27;;;8.60;;
61642;SDS011;47551;52.506;4.678;2022-09-09T01:31:56;10.32;;;8.98;;
61642;SDS011;47551;52.506;4.678;2022-09-09T01:32:56;10.38;;;9.10;;
61642;SDS011;47551;52.506;4.678;2022-09-09T01:33:18;11.40;;;9.27;;
61642;SDS011;47551;52.506;4.678;2022-09-09T01:33:38;11.57;;;9.37;;
61642;SDS011;47551;52.506;4.678;2022-09-09T01:33:59;11.83;;;8.97;;
61642;SDS011;47551;52.506;4.678;2022-09-09T01:34:19;11.30;;;9.10;;
61642;SDS011;47551;52.506;4.678;2022-09-09T01:34:39;11.77;;;9.40;;
61642;SDS011;47551;52.506;4.678;2022-09-09T01:35:00;11.20;;;9.40;;
61642;SDS011;47551;52.506;4.678;2022-09-09T01:35:27;11.82;;;9.38;;
61642;SDS011;47551;52.506;4.678;2022-09-09T01:36:00;11.70;;;9.10;;
61642;SDS011;47551;52.506;4.678;2022-09-09T01:36:23;11.35;;;9.55;;
61642;SDS011;47551;52.506;4.678;2022-09-09T01:36:49;12.10;;;9.95;;
61642;SDS011;47551;52.506;4.678;2022-09-09T01:37:12;10.68;;;9.40;;
61642;SDS011;47551;52.506;4.678;2022-09-09T01:37:33;11.70;;;9.48;;
61642;SDS011;47551;52.506;4.678;2022-09-09T01:37:53;11.05;;;9.40;;
61642;SDS011;47551;52.506;4.678;2022-09-09T01:38:13;12.13;;;10.07;;
61642;SDS011;47551;52.506;4.678;2022-09-09T01:38:34;11.77;;;10.30;;
61642;SDS011;47551;52.506;4.678;2022-09-09T01:38:54;12.20;;;10.43;;
61642;SDS011;47551;52.506;4.678;2022-09-09T01:39:14;12.13;;;10.00;;
61642;SDS011;47551;52.506;4.678;2022-09-09T01:39:35;11.65;;;9.82;;
61642;SDS011;47551;52.506;4.678;2022-09-09T01:39:56;11.60;;;9.27;;
61642;SDS011;47551;52.506;4.678;2022-09-09T01:40:16;12.00;;;9.37;;
61642;SDS011;47551;52.506;4.678;2022-09-09T01:40:36;13.70;;;10.20;;
61642;SDS011;47551;52.506;4.678;2022-09-09T01:40:56;14.53;;;10.27;;
61642;SDS011;47551;52.506;4.678;2022-09-09T01:41:18;13.23;;;9.88;;
61642;SDS011;47551;52.506;4.678;2022-09-09T01:41:38;13.00;;;10.00;;
61642;SDS011;47551;52.506;4.678;2022-09-09T01:41:58;13.23;;;10.20;;
61642;SDS011;47551;52.506;4.678;2022-09-09T01:42:19;12.37;;;9.90;;
61642;SDS011;47551;52.506;4.678;2022-09-09T01:42:39;11.83;;;10.00;;
61642;SDS011;47551;52.506;4.678;2022-09-09T01:42:59;12.43;;;9.97;;
61642;SDS011;47551;52.506;4.678;2022-09-09T01:43:22;13.47;;;10.27;;
61642;SDS011;47551;52.506;4.678;2022-09-09T01:43:43;13.27;;;10.13;;
61642;SDS011;47551;52.506;4.678;2022-09-09T01:44:06;11.93;;;9.77;;
61642;SDS011;47551;52.506;4.678;2022-09-09T01:44:27;12.82;;;9.90;;
61642;SDS011;47551;52.506;4.678;2022-09-09T01:44:48;12.37;;;10.20;;
61642;SDS011;47551;52.506;4.678;2022-09-09T01:45:08;11.93;;;10.02;;
61642;SDS011;47551;52.506;4.678;2022-09-09T01:45:28;13.73;;;10.30;;
61642;SDS011;47551;52.506;4.678;2022-09-09T01:45:49;12.63;;;10.13;;
61642;SDS011;47551;52.506;4.678;2022-09-09T01:46:10;14.00;;;10.30;;
61642;SDS011;47551;52.506;4.678;2022-09-09T01:46:31;12.98;;;10.40;;
61642;SDS011;47551;52.506;4.678;2022-09-09T01:46:52;12.47;;;10.20;;
61642;SDS011;47551;52.506;4.678;2022-09-09T01:47:12;13.02;;;10.27;;
61642;SDS011;47551;52.506;4.678;2022-09-09T01:47:32;13.27;;;10.30;;
61642;SDS011;47551;52.506;4.678;2022-09-09T01:47:52;13.70;;;10.07;;
61642;SDS011;47551;52.506;4.678;2022-09-09T01:48:16;14.15;;;10.20;;
61642;SDS011;47551;52.506;4.678;2022-09-09T01:48:37;13.77;;;10.05;;
61642;SDS011;47551;52.506;4.678;2022-09-09T01:48:58;13.57;;;9.88;;
61642;SDS011;47551;52.506;4.678;2022-09-09T01:49:19;12.65;;;9.93;;
61642;SDS011;47551;52.506;4.678;2022-09-09T01:49:39;13.90;;;10.60;;
61642;SDS011;47551;52.506;4.678;2022-09-09T01:49:59;13.70;;;10.77;;
61642;SDS011;47551;52.506;4.678;2022-09-09T01:50:21;12.95;;;10.45;;
61642;SDS011;47551;52.506;4.678;2022-09-09T01:50:44;13.00;;;10.93;;
61642;SDS011;47551;52.506;4.678;2022-09-09T01:51:07;13.47;;;11.20;;
61642;SDS011;47551;52.506;4.678;2022-09-09T01:51:27;13.70;;;10.90;;
61642;SDS011;47551;52.506;4.678;2022-09-09T01:51:50;13.30;;;10.95;;
61642;SDS011;47551;52.506;4.678;2022-09-09T01:52:11;13.75;;;10.88;;
61642;SDS011;47551;52.506;4.678;2022-09-09T01:52:32;13.77;;;11.03;;
61642;SDS011;47551;52.506;4.678;2022-09-09T01:52:54;12.63;;;10.68;;
61642;SDS011;47551;52.506;4.678;2022-09-09T01:53:16;12.73;;;10.70;;
61642;SDS011;47551;52.506;4.678;2022-09-09T01:53:37;13.25;;;10.63;;
61642;SDS011;47551;52.506;4.678;2022-09-09T01:54:01;13.77;;;10.50;;
61642;SDS011;47551;52.506;4.678;2022-09-09T01:54:22;13.38;;;10.70;;
61642;SDS011;47551;52.506;4.678;2022-09-09T01:54:43;13.48;;;11.05;;
61642;SDS011;47551;52.506;4.678;2022-09-09T01:55:04;13.95;;;11.10;;
61642;SDS011;47551;52.506;4.678;2022-09-09T01:55:29;13.98;;;11.10;;
61642;SDS011;47551;52.506;4.678;2022-09-09T01:57:27;14.27;;;11.50;;
61642;SDS011;47551;52.506;4.678;2022-09-09T01:58:09;13.45;;;11.50;;
61642;SDS011;47551;52.506;4.678;2022-09-09T01:58:33;14.30;;;11.82;;
61642;SDS011;47551;52.506;4.678;2022-09-09T01:59:02;14.02;;;12.20;;
61642;SDS011;47551;52.506;4.678;2022-09-09T02:00:21;14.40;;;12.03;;
61642;SDS011;47551;52.506;4.678;2022-09-09T02:00:51;15.00;;;12.10;;
61642;SDS011;47551;52.506;4.678;2022-09-09T02:02:13;14.63;;;12.17;;
61642;SDS011;47551;52.506;4.678;2022-09-09T02:02:36;14.05;;;12.13;;
61642;SDS011;47551;52.506;4.678;2022-09-09T02:03:05;14.52;;;12.40;;
61642;SDS011;47551;52.506;4.678;2022-09-09T02:03:28;16.15;;;12.55;;
61642;SDS011;47551;52.506;4.678;2022-09-09T02:03:54;15.60;;;12.73;;
61642;SDS011;47551;52.506;4.678;2022-09-09T02:05:38;14.13;;;12.18;;
61642;SDS011;47551;52.506;4.678;2022-09-09T02:06:38;15.05;;;12.48;;
61642;SDS011;47551;52.506;4.678;2022-09-09T02:07:00;15.68;;;12.65;;
61642;SDS011;47551;52.506;4.678;2022-09-09T02:07:40;17.20;;;12.67;;
61642;SDS011;47551;52.506;4.678;2022-09-09T02:08:07;15.90;;;13.27;;
61642;SDS011;47551;52.506;4.678;2022-09-09T02:08:33;15.98;;;13.57;;
61642;SDS011;47551;52.506;4.678;2022-09-09T02:08:57;15.23;;;13.40;;
61642;SDS011;47551;52.506;4.678;2022-09-09T02:09:19;14.10;;;12.40;;
61642;SDS011;47551;52.506;4.678;2022-09-09T02:09:42;14.77;;;12.50;;
61642;SDS011;47551;52.506;4.678;2022-09-09T02:10:10;15.52;;;12.73;;
61642;SDS011;47551;52.506;4.678;2022-09-09T02:10:40;14.88;;;13.25;;
61642;SDS011;47551;52.506;4.678;2022-09-09T02:11:06;15.05;;;13.45;;
61642;SDS011;47551;52.506;4.678;2022-09-09T02:11:27;16.38;;;13.88;;
61642;SDS011;47551;52.506;4.678;2022-09-09T02:11:48;15.57;;;13.52;;
61642;SDS011;47551;52.506;4.678;2022-09-09T02:12:11;16.45;;;13.85;;
61642;SDS011;47551;52.506;4.678;2022-09-09T02:12:33;16.25;;;13.75;;
61642;SDS011;47551;52.506;4.678;2022-09-09T02:12:55;17.20;;;13.80;;
61642;SDS011;47551;52.506;4.678;2022-09-09T02:13:21;16.67;;;13.48;;
61642;SDS011;47551;52.506;4.678;2022-09-09T02:13:43;15.65;;;13.02;;
61642;SDS011;47551;52.506;4.678;2022-09-09T02:14:08;16.67;;;13.23;;
61642;SDS011;47551;52.506;4.678;2022-09-09T02:14:30;16.35;;;13.45;;
61642;SDS011;47551;52.506;4.678;2022-09-09T02:15:06;15.63;;;13.15;;
61642;SDS011;47551;52.506;4.678;2022-09-09T02:15:47;17.15;;;13.20;;
61642;SDS011;47551;52.506;4.678;2022-09-09T02:16:38;17.02;;;13.88;;
61642;SDS011;47551;52.506;4.678;2022-09-09T02:17:03;15.15;;;13.45;;
61642;SDS011;47551;52.506;4.678;2022-09-09T02:17:27;15.90;;;14.18;;
61642;SDS011;47551;52.506;4.678;2022-09-09T02:17:49;15.77;;;14.07;;
61642;SDS011;47551;52.506;4.678;2022-09-09T02:18:11;16.77;;;13.68;;
61642;SDS011;47551;52.506;4.678;2022-09-09T02:19:13;16.45;;;13.73;;
61642;SDS011;47551;52.506;4.678;2022-09-09T02:19:37;16.85;;;13.85;;
61642;SDS011;47551;52.506;4.678;2022-09-09T02:20:02;17.55;;;14.23;;
61642;SDS011;47551;52.506;4.678;2022-09-09T02:20:23;16.52;;;14.40;;
61642;SDS011;47551;52.506;4.678;2022-09-09T02:20:45;16.73;;;13.90;;
61642;SDS011;47551;52.506;4.678;2022-09-09T02:21:05;18.13;;;13.85;;
61642;SDS011;47551;52.506;4.678;2022-09-09T02:21:27;16.58;;;13.48;;
61642;SDS011;47551;52.506;4.678;2022-09-09T02:21:48;15.98;;;12.98;;
61642;SDS011;47551;52.506;4.678;2022-09-09T02:22:09;16.27;;;13.40;;
61642;SDS011;47551;52.506;4.678;2022-09-09T02:22:29;15.67;;;13.33;;
61642;SDS011;47551;52.506;4.678;2022-09-09T02:22:51;16.48;;;13.27;;
61642;SDS011;47551;52.506;4.678;2022-09-09T02:23:12;17.75;;;13.80;;
61642;SDS011;47551;52.506;4.678;2022-09-09T02:23:32;18.37;;;13.83;;
61642;SDS011;47551;52.506;4.678;2022-09-09T02:23:53;15.90;;;13.38;;
61642;SDS011;47551;52.506;4.678;2022-09-09T02:24:15;16.40;;;13.50;;
61642;SDS011;47551;52.506;4.678;2022-09-09T02:24:39;17.20;;;13.73;;
61642;SDS011;47551;52.506;4.678;2022-09-09T02:25:00;16.35;;;13.55;;
61642;SDS011;47551;52.506;4.678;2022-09-09T02:25:21;16.33;;;13.60;;
61642;SDS011;47551;52.506;4.678;2022-09-09T02:25:42;16.60;;;13.63;;
61642;SDS011;47551;52.506;4.678;2022-09-09T02:26:03;18.02;;;13.93;;
61642;SDS011;47551;52.506;4.678;2022-09-09T02:26:24;16.95;;;13.63;;
61642;SDS011;47551;52.506;4.678;2022-09-09T02:26:45;16.50;;;13.38;;
61642;SDS011;47551;52.506;4.678;2022-09-09T02:27:08;15.63;;;13.32;;
61642;SDS011;47551;52.506;4.678;2022-09-09T02:27:29;17.50;;;14.07;;
61642;SDS011;47551;52.506;4.678;2022-09-09T02:27:49;16.60;;;13.80;;
61642;SDS011;47551;52.506;4.678;2022-09-09T02:28:13;16.05;;;13.85;;
61642;SDS011;47551;52.506;4.678;2022-09-09T02:28:37;15.98;;;13.30;;
61642;SDS011;47551;52.506;4.678;2022-09-09T02:28:58;15.97;;;13.13;;
61642;SDS011;47551;52.506;4.678;2022-09-09T02:29:23;16.58;;;13.45;;
61642;SDS011;47551;52.506;4.678;2022-09-09T02:29:45;16.27;;;13.68;;
61642;SDS011;47551;52.506;4.678;2022-09-09T02:30:07;16.65;;;13.63;;
61642;SDS011;47551;52.506;4.678;2022-09-09T02:30:28;15.63;;;13.05;;
61642;SDS011;47551;52.506;4.678;2022-09-09T02:30:50;16.40;;;13.45;;
61642;SDS011;47551;52.506;4.678;2022-09-09T02:31:15;17.40;;;14.40;;
61642;SDS011;47551;52.506;4.678;2022-09-09T02:31:37;16.63;;;14.35;;
61642;SDS011;47551;52.506;4.678;2022-09-09T02:32:21;16.92;;;14.30;;
61642;SDS011;47551;52.506;4.678;2022-09-09T02:32:40;17.03;;;14.43;;
61642;SDS011;47551;52.506;4.678;2022-09-09T02:33:02;18.35;;;13.95;;
61642;SDS011;47551;52.506;4.678;2022-09-09T02:33:24;18.17;;;14.20;;
61642;SDS011;47551;52.506;4.678;2022-09-09T02:33:52;17.35;;;14.43;;
61642;SDS011;47551;52.506;4.678;2022-09-09T02:34:14;16.17;;;14.48;;
61642;SDS011;47551;52.506;4.678;2022-09-09T02:34:36;17.92;;;14.30;;
61642;SDS011;47551;52.506;4.678;2022-09-09T02:35:02;16.13;;;13.93;;
61642;SDS011;47551;52.506;4.678;2022-09-09T02:35:23;17.52;;;14.18;;
61642;SDS011;47551;52.506;4.678;2022-09-09T02:35:44;16.87;;;14.30;;
61642;SDS011;47551;52.506;4.678;2022-09-09T02:36:05;17.80;;;14.43;;
61642;SDS011;47551;52.506;4.678;2022-09-09T02:36:27;17.98;;;14.18;;
61642;SDS011;47551;52.506;4.678;2022-09-09T02:36:49;16.65;;;13.73;;
61642;SDS011;47551;52.506;4.678;2022-09-09T02:37:11;17.10;;;14.63;;
61642;SDS011;47551;52.506;4.678;2022-09-09T02:37:34;17.02;;;15.05;;
61642;SDS011;47551;52.506;4.678;2022-09-09T02:37:56;17.40;;;14.75;;
61642;SDS011;47551;52.506;4.678;2022-09-09T02:38:19;17.80;;;14.43;;
61642;SDS011;47551;52.506;4.678;2022-09-09T02:38:48;18.83;;;15.32;;
61642;SDS011;47551;52.506;4.678;2022-09-09T02:39:10;19.58;;;15.05;;
61642;SDS011;47551;52.506;4.678;2022-09-09T02:39:30;19.37;;;14.87;;
61642;SDS011;47551;52.506;4.678;2022-09-09T02:39:50;19.37;;;15.33;;
61642;SDS011;47551;52.506;4.678;2022-09-09T02:40:12;17.83;;;15.75;;
61642;SDS011;47551;52.506;4.678;2022-09-09T02:40:33;18.27;;;15.27;;
61642;SDS011;47551;52.506;4.678;2022-09-09T02:40:56;18.23;;;15.18;;
61642;SDS011;47551;52.506;4.678;2022-09-09T02:41:17;17.77;;;14.93;;
61642;SDS011;47551;52.506;4.678;2022-09-09T02:41:41;18.38;;;15.23;;
61642;SDS011;47551;52.506;4.678;2022-09-09T02:42:03;18.00;;;15.05;;
61642;SDS011;47551;52.506;4.678;2022-09-09T02:42:28;17.92;;;14.73;;
61642;SDS011;47551;52.506;4.678;2022-09-09T02:42:48;18.27;;;14.57;;
61642;SDS011;47551;52.506;4.678;2022-09-09T02:43:09;18.75;;;15.13;;
61642;SDS011;47551;52.506;4.678;2022-09-09T02:43:33;17.33;;;14.95;;
61642;SDS011;47551;52.506;4.678;2022-09-09T02:43:53;16.67;;;14.23;;
61642;SDS011;47551;52.506;4.678;2022-09-09T02:44:14;18.43;;;14.93;;
61642;SDS011;47551;52.506;4.678;2022-09-09T02:44:38;18.75;;;15.05;;
61642;SDS011;47551;52.506;4.678;2022-09-09T02:44:58;18.17;;;14.80;;
61642;SDS011;47551;52.506;4.678;2022-09-09T02:45:19;18.42;;;15.20;;
61642;SDS011;47551;52.506;4.678;2022-09-09T02:45:46;17.23;;;15.05;;
61642;SDS011;47551;52.506;4.678;2022-09-09T02:46:15;18.77;;;15.40;;
61642;SDS011;47551;52.506;4.678;2022-09-09T02:48:09;19.35;;;15.88;;
61642;SDS011;47551;52.506;4.678;2022-09-09T02:48:34;18.05;;;16.08;;
61642;SDS011;47551;52.506;4.678;2022-09-09T02:49:03;19.85;;;15.73;;
61642;SDS011;47551;52.506;4.678;2022-09-09T02:50:30;18.00;;;15.70;;
61642;SDS011;47551;52.506;4.678;2022-09-09T02:51:18;19.40;;;15.65;;
61642;SDS011;47551;52.506;4.678;2022-09-09T02:52:07;19.30;;;16.30;;
61642;SDS011;47551;52.506;4.678;2022-09-09T02:52:37;19.35;;;16.73;;
61642;SDS011;47551;52.506;4.678;2022-09-09T02:53:01;18.92;;;16.17;;
61642;SDS011;47551;52.506;4.678;2022-09-09T02:53:23;20.50;;;16.33;;
61642;SDS011;47551;52.506;4.678;2022-09-09T02:54:09;19.77;;;16.65;;
61642;SDS011;47551;52.506;4.678;2022-09-09T02:54:35;19.77;;;16.40;;
61642;SDS011;47551;52.506;4.678;2022-09-09T02:54:58;19.65;;;16.83;;
61642;SDS011;47551;52.506;4.678;2022-09-09T02:55:39;18.33;;;16.23;;
61642;SDS011;47551;52.506;4.678;2022-09-09T02:56:08;18.70;;;15.70;;
61642;SDS011;47551;52.506;4.678;2022-09-09T02:56:29;19.73;;;16.40;;
61642;SDS011;47551;52.506;4.678;2022-09-09T02:56:53;22.65;;;16.77;;
61642;SDS011;47551;52.506;4.678;2022-09-09T02:57:18;20.58;;;16.75;;
61642;SDS011;47551;52.506;4.678;2022-09-09T02:57:40;19.33;;;16.50;;
61642;SDS011;47551;52.506;4.678;2022-09-09T02:58:04;18.58;;;15.80;;
61642;SDS011;47551;52.506;4.678;2022-09-09T02:58:25;19.10;;;16.38;;
61642;SDS011;47551;52.506;4.678;2022-09-09T02:58:46;19.92;;;16.60;;
61642;SDS011;47551;52.506;4.678;2022-09-09T02:59:09;20.40;;;16.20;;
61642;SDS011;47551;52.506;4.678;2022-09-09T02:59:30;20.13;;;16.35;;
61642;SDS011;47551;52.506;4.678;2022-09-09T02:59:50;19.87;;;16.70;;
61642;SDS011;47551;52.506;4.678;2022-09-09T03:00:12;19.95;;;17.08;;
61642;SDS011;47551;52.506;4.678;2022-09-09T03:00:32;19.63;;;16.50;;
61642;SDS011;47551;52.506;4.678;2022-09-09T03:00:52;19.93;;;17.20;;
61642;SDS011;47551;52.506;4.678;2022-09-09T03:01:13;20.48;;;17.08;;
61642;SDS011;47551;52.506;4.678;2022-09-09T03:01:34;19.38;;;16.67;;
61642;SDS011;47551;52.506;4.678;2022-09-09T03:01:58;20.42;;;17.25;;
61642;SDS011;47551;52.506;4.678;2022-09-09T03:02:21;20.30;;;17.60;;
61642;SDS011;47551;52.506;4.678;2022-09-09T03:02:41;20.58;;;17.55;;